Pagrindinis puslapis
METAR-TAF:

METAR-TAF

Oro uostai :

Luangprabangas, Laosas

platuma: 19-53N, ilguma: 102-08E, Aukštis: 305 m

Dabartinis oras

Ataskaita buvo paskelbta 3 valandos ir 15 minutes, ne 13:00 UTC
Vėjas 2 kt iš Šiaurės
Temperatūra 27°C
Drėgmė 66%
Slėgis 1013 hPa
Matomumas 10 km arba daugiau
Mažai debesys ne aukštis 2000 ft

METAR: VLLB 191300Z 36002KT 9999 FEW020 27/20 Q1013 NOSIG

Laikas: 23:15 (16:15 UTC)

Prognozė

Ataskaita buvo paskelbta 5 valandos ir 15 minutes, ne 11:00 UTC
Prognozė galioja nuo 19 metu 12 UTC su 20 metu 12 UTC
Vėjas 4 kt iš Šiaurės
Matomumas: 5000 m
Mažai debesys ne aukštis 2000 ft
Išsisklaidę debesys ne aukštis 6000 ft
rūkana

TAF: VLLB 191100Z 1912/2012 36004KT 5000 BR FEW020 SCT060

Orai ataskaitas ir orų prognozės (METAR, TAF).

turimą stotys yra geltonos ir raudonos taškus žemėlapyje.

Perkelti pele per norėdami pamatyti stoties vardą.

Tada spustelėkite, norėdami matyti oro stebėjimo ir prognozės.

Norėdami pakeisti žemėlapį: spustelėkite ant žalios mygtukų su juodo kryžiaus žemyn,; žalią mygtuką su brūkšneliu, jei norite nutolinti; arba žalių rodyklių gretimoms žemėlapius.


METAR-TAF: